Deinum, Netherlands
Current Conditions -  °F | °C
As of 3:25 PM on Saturday 25 Oct 2014 (Local Time) from EHLW Reporting Station
Broken Clouds Broken Clouds  
Wind Chill: 59°   Ceiling: 4500
Heat Index: 59°   Visibility: 6mi
Dew Point: 48°   Wind: 8mph
Humidity: 67%   Direction: 240°WSW
Pressure: 30.03"   Gusts: NA
Location:  53.19°N, 5.72°E
Report Text: EHLW 251325Z AUTO 24007KT 9999 BKN045 15/09 Q1017 BLU
Loading
Personal Weather Stations






























Interactive Weather Map
Tropical Storm Tracking
New forecast layout! Learn more

10-Day Weather Forecast

Advertisements
Track Severe Weather on mobile